Skanee, Michigan
Current Conditions -  °F | °C
As of 1:09 AM on Friday 31 Oct 2014 (Local Time) from KCMX Reporting Station
Light Snow Light Snow  
Wind Chill: -6°   Ceiling: 1800
Heat Index:   Visibility: 3mi
Dew Point: -3°   Wind: 21mph
Humidity: 78%   Direction: 10°N
Pressure: 30.13"   Gusts: 28mph
Location:  46.87°N, 88.21°W
Report Text: KCMX 310509Z AUTO 01018G24KT 3SM -SN BKN018 OVC026 01/M03 A3013 RMK AO2 P0000 T00061028
Loading
Personal Weather Stations






























Interactive Weather Map
Tropical Storm Tracking
New forecast layout! Learn more

10-Day Weather Forecast

Advertisements
Track Severe Weather on mobile